createdAt,value
2023-03-21T00:01:53.972Z,99764.09
2023-03-21T00:04:25.291Z,99765.09
2023-03-21T00:06:52.659Z,99768.94
2023-03-21T00:09:20.028Z,99768.16
2023-03-21T00:11:47.302Z,99757.50
2023-03-21T00:14:18.812Z,99752.91
2023-03-21T00:16:50.831Z,99750.75
2023-03-21T00:19:21.284Z,99744.38
2023-03-21T00:22:08.869Z,99741.84
2023-03-21T00:24:36.909Z,99742.78
2023-03-21T00:27:29.902Z,99738.34
2023-03-21T00:29:51.397Z,99724.34
2023-03-21T00:32:19.708Z,99725.53
2023-03-21T00:35:01.397Z,99722.59
2023-03-21T00:37:34.874Z,99719.13
2023-03-21T00:40:02.071Z,99725.03
2023-03-21T00:42:30.042Z,99722.97
2023-03-21T00:44:56.889Z,99716.63
2023-03-21T00:47:25.836Z,99721.22
2023-03-21T00:49:52.868Z,99714.06
2023-03-21T00:52:30.628Z,99720.88
2023-03-21T00:55:06.368Z,99709.38
2023-03-21T00:57:39.391Z,99715.41
2023-03-21T01:00:10.716Z,99716.03
2023-03-21T01:02:38.674Z,99711.47
2023-03-21T01:05:05.934Z,99709.28
2023-03-21T01:07:32.803Z,99719.81
2023-03-21T01:09:59.610Z,99707.16
2023-03-21T01:12:27.689Z,99714.84
2023-03-21T01:14:55.876Z,99703.00
2023-03-21T01:17:22.730Z,99707.72
2023-03-21T01:19:52.226Z,99700.88
2023-03-21T01:22:20.066Z,99696.25
2023-03-21T01:24:54.134Z,99697.03
2023-03-21T01:27:22.568Z,99702.22
2023-03-21T01:29:49.553Z,99689.69
2023-03-21T01:32:16.839Z,99690.72
2023-03-21T01:34:43.792Z,99685.56
2023-03-21T01:37:10.831Z,99679.50
2023-03-21T01:39:44.766Z,99672.53
2023-03-21T01:42:13.749Z,99671.75
2023-03-21T01:44:56.862Z,99671.16
2023-03-21T01:47:26.260Z,99670.72
2023-03-21T01:50:11.560Z,99666.31
2023-03-21T01:52:50.246Z,99659.44
2023-03-21T01:55:24.987Z,99666.47
2023-03-21T01:58:24.608Z,99666.78
2023-03-21T02:01:23.002Z,99660.22
2023-03-21T02:03:54.044Z,99656.25
2023-03-21T02:07:05.927Z,99656.44
2023-03-21T02:09:42.016Z,99649.78
2023-03-21T02:12:16.489Z,99655.53
2023-03-21T02:14:47.128Z,99651.56
2023-03-21T02:17:43.588Z,99651.13
2023-03-21T02:20:25.424Z,99670.63
2023-03-21T02:23:11.968Z,99668.66
2023-03-21T02:26:21.337Z,99670.81
2023-03-21T02:29:14.180Z,99668.84
2023-03-21T02:31:50.398Z,99659.44
2023-03-21T02:34:39.834Z,99653.44
2023-03-21T02:37:28.965Z,99653.91
2023-03-21T02:40:13.626Z,99654.56
2023-03-21T02:43:11.631Z,99657.84
2023-03-21T02:46:10.396Z,99664.63
2023-03-21T02:48:50.839Z,99653.31
2023-03-21T02:51:22.488Z,99655.41
2023-03-21T02:54:23.672Z,99654.84
2023-03-21T02:56:49.428Z,99654.16
2023-03-21T02:59:19.900Z,99662.16
2023-03-21T03:01:47.682Z,99666.13
2023-03-21T03:04:22.903Z,99659.06
2023-03-21T03:06:56.314Z,99665.19
2023-03-21T03:09:29.462Z,99656.28
2023-03-21T03:12:12.213Z,99652.06
2023-03-21T03:15:05.337Z,99659.16
2023-03-21T03:17:42.970Z,99656.44
2023-03-21T03:20:21.977Z,99663.88
2023-03-21T03:23:17.906Z,99661.34
2023-03-21T03:25:55.761Z,99661.41
2023-03-21T03:28:28.028Z,99669.41
2023-03-21T03:31:08.781Z,99656.91
2023-03-21T03:33:47.017Z,99662.66
2023-03-21T03:36:30.527Z,99651.66
2023-03-21T03:39:04.843Z,99647.72
2023-03-21T03:42:03.063Z,99650.34
2023-03-21T03:44:26.206Z,99653.75
2023-03-21T03:47:04.375Z,99659.63
2023-03-21T03:50:01.683Z,99648.28
2023-03-21T03:52:42.019Z,99658.13
2023-03-21T03:55:17.791Z,99647.81
2023-03-21T03:57:48.028Z,99655.88
2023-03-21T04:00:17.281Z,99660.47
2023-03-21T04:02:46.011Z,99663.97
2023-03-21T04:05:21.257Z,99671.47
2023-03-21T04:07:51.148Z,99676.38
2023-03-21T04:10:22.805Z,99674.94
2023-03-21T04:12:51.611Z,99681.34
2023-03-21T04:15:25.131Z,99683.19
2023-03-21T04:18:00.022Z,99686.94
2023-03-21T04:20:36.666Z,99688.72
2023-03-21T04:23:06.394Z,99677.78
2023-03-21T04:25:40.521Z,99673.44
2023-03-21T04:28:12.395Z,99681.97
2023-03-21T04:31:00.302Z,99673.81
2023-03-21T04:33:29.127Z,99679.47
2023-03-21T04:35:59.301Z,99664.03
2023-03-21T04:38:30.976Z,99654.59
2023-03-21T04:41:02.951Z,99653.34
2023-03-21T04:43:31.048Z,99663.59
2023-03-21T04:45:58.084Z,99656.34
2023-03-21T04:48:25.554Z,99666.19
2023-03-21T04:50:52.680Z,99660.84
2023-03-21T04:53:19.519Z,99656.94
2023-03-21T04:55:46.455Z,99656.91
2023-03-21T04:58:13.394Z,99671.34
2023-03-21T05:00:40.279Z,99667.22
2023-03-21T05:03:11.116Z,99663.75
2023-03-21T05:05:38.856Z,99657.25
2023-03-21T05:08:06.705Z,99654.19
2023-03-21T05:10:33.821Z,99652.97
2023-03-21T05:13:01.136Z,99664.66
2023-03-21T05:15:28.416Z,99674.53
2023-03-21T05:17:55.732Z,99659.16
2023-03-21T05:20:22.633Z,99664.59
2023-03-21T05:22:51.599Z,99656.81
2023-03-21T05:25:21.315Z,99666.63
2023-03-21T05:28:09.041Z,99661.50
2023-03-21T05:30:36.545Z,99666.59
2023-03-21T05:33:04.727Z,99668.03
2023-03-21T05:35:32.211Z,99664.56
2023-03-21T05:38:02.424Z,99664.41
2023-03-21T05:40:34.004Z,99669.16
2023-03-21T05:43:02.187Z,99670.84
2023-03-21T05:45:29.095Z,99679.84
2023-03-21T05:47:56.120Z,99678.16
2023-03-21T05:50:27.354Z,99685.63
2023-03-21T05:53:23.102Z,99682.34
2023-03-21T05:55:50.613Z,99688.56
2023-03-21T05:58:37.075Z,99692.94
2023-03-21T06:01:05.057Z,99691.63
2023-03-21T06:03:35.497Z,99690.94
2023-03-21T06:06:22.808Z,99690.94
2023-03-21T06:09:02.442Z,99688.19
2023-03-21T06:11:34.369Z,99700.59
2023-03-21T06:14:25.282Z,99701.75
2023-03-21T06:17:14.244Z,99699.09
2023-03-21T06:19:47.470Z,99697.53
2023-03-21T06:22:31.698Z,99703.03
2023-03-21T06:24:59.966Z,99704.16
2023-03-21T06:27:27.762Z,99700.28
2023-03-21T06:29:56.080Z,99700.19
2023-03-21T06:32:23.216Z,99697.97
2023-03-21T06:34:55.152Z,99708.66
2023-03-21T06:37:22.351Z,99707.22
2023-03-21T06:39:49.455Z,99709.66
2023-03-21T06:42:16.392Z,99711.34
2023-03-21T06:44:43.756Z,99711.56
2023-03-21T06:47:14.334Z,99709.16
2023-03-21T06:49:44.191Z,99709.47
2023-03-21T06:52:12.586Z,99716.94
2023-03-21T06:54:40.309Z,99714.09
2023-03-21T06:57:13.556Z,99723.56
2023-03-21T06:59:42.094Z,99717.91
2023-03-21T07:02:13.570Z,99719.38
2023-03-21T07:04:46.686Z,99727.19
2023-03-21T07:07:18.664Z,99726.72
2023-03-21T07:09:45.530Z,99717.81
2023-03-21T07:12:12.420Z,99712.00
2023-03-21T07:14:55.314Z,99712.59
2023-03-21T07:17:22.338Z,99714.13
2023-03-21T07:19:49.259Z,99715.50
2023-03-21T07:22:18.620Z,99715.41
2023-03-21T07:24:55.915Z,99714.84
2023-03-21T07:27:29.750Z,99718.81
2023-03-21T07:29:56.745Z,99714.59
2023-03-21T07:32:23.586Z,99712.19
2023-03-21T07:34:50.508Z,99715.69
2023-03-21T07:37:17.468Z,99713.75
2023-03-21T07:39:44.344Z,99720.81
2023-03-21T07:42:12.174Z,99716.94
2023-03-21T07:44:40.107Z,99716.09
2023-03-21T07:47:06.922Z,99719.59
2023-03-21T07:49:33.849Z,99719.44
2023-03-21T07:52:04.308Z,99720.19
2023-03-21T07:54:31.833Z,99728.88
2023-03-21T07:56:58.648Z,99720.19
2023-03-21T07:59:25.532Z,99722.13
2023-03-21T08:01:52.492Z,99727.03
2023-03-21T08:04:19.634Z,99724.75
2023-03-21T08:06:46.621Z,99725.00
2023-03-21T08:09:13.542Z,99721.59
2023-03-21T08:11:40.757Z,99708.31
2023-03-21T08:14:07.690Z,99701.81
2023-03-21T08:16:34.650Z,99703.66
2023-03-21T08:19:01.574Z,99701.19
2023-03-21T08:21:28.573Z,99710.34
2023-03-21T08:23:55.492Z,99695.41
2023-03-21T08:26:26.541Z,99692.91
2023-03-21T08:28:53.529Z,99698.59
2023-03-21T08:31:21.948Z,99702.06
2023-03-21T08:33:53.798Z,99695.38
2023-03-21T08:36:22.381Z,99692.06
2023-03-21T08:38:54.077Z,99697.09
2023-03-21T08:41:22.210Z,99685.91
2023-03-21T08:43:49.406Z,99685.06
2023-03-21T08:46:16.603Z,99685.78
2023-03-21T08:48:43.554Z,99686.47
2023-03-21T08:51:10.396Z,99686.25
2023-03-21T08:53:37.806Z,99686.81
2023-03-21T08:56:04.862Z,99678.13
2023-03-21T08:58:32.056Z,99671.72
2023-03-21T09:00:58.943Z,99672.06
2023-03-21T09:03:27.346Z,99672.94
2023-03-21T09:05:54.773Z,99661.25
2023-03-21T09:08:23.522Z,99665.28
2023-03-21T09:10:54.292Z,99662.38
2023-03-21T09:13:21.939Z,99657.13
2023-03-21T09:15:48.925Z,99656.69
2023-03-21T09:18:18.243Z,99641.38
2023-03-21T09:20:47.140Z,99634.75
2023-03-21T09:23:15.048Z,99637.41
2023-03-21T09:25:42.391Z,99628.66
2023-03-21T09:28:09.846Z,99631.75
2023-03-21T09:30:37.602Z,99620.22
2023-03-21T09:33:08.898Z,99612.56
2023-03-21T09:35:36.316Z,99607.75
2023-03-21T09:38:03.939Z,99609.19
2023-03-21T09:40:54.765Z,99608.63
2023-03-21T09:43:59.875Z,99607.75
2023-03-21T09:47:05.449Z,99610.16
2023-03-21T09:49:39.797Z,99614.59
2023-03-21T09:52:18.392Z,99605.50
2023-03-21T09:54:45.883Z,99609.81
2023-03-21T09:57:34.006Z,99616.56
2023-03-21T10:00:09.988Z,99601.91
2023-03-21T10:02:49.589Z,99596.19
2023-03-21T10:05:32.737Z,99591.34
2023-03-21T10:08:07.279Z,99591.31
2023-03-21T10:10:48.747Z,99598.50
2023-03-21T10:13:25.448Z,99590.81
2023-03-21T10:15:58.260Z,99595.09
2023-03-21T10:18:29.173Z,99597.47
2023-03-21T10:20:56.638Z,99593.84
2023-03-21T10:23:28.097Z,99588.63
2023-03-21T10:25:59.546Z,99591.75
2023-03-21T10:28:39.413Z,99595.97
2023-03-21T10:31:25.545Z,99594.47
2023-03-21T10:33:56.157Z,99591.25
2023-03-21T10:36:28.225Z,99597.47
2023-03-21T10:39:05.188Z,99584.16
2023-03-21T10:41:33.540Z,99591.25
2023-03-21T10:44:11.946Z,99589.06
2023-03-21T10:46:39.033Z,99592.56
2023-03-21T10:49:08.510Z,99576.03
2023-03-21T10:51:39.565Z,99582.00
2023-03-21T10:54:12.149Z,99575.59
2023-03-21T10:56:43.985Z,99573.94
2023-03-21T10:59:18.004Z,99573.00
2023-03-21T11:01:50.518Z,99568.31
2023-03-21T11:04:26.811Z,99571.91
2023-03-21T11:07:11.098Z,99569.06
2023-03-21T11:10:14.466Z,99563.66
2023-03-21T11:12:48.064Z,99558.13
2023-03-21T11:15:14.980Z,99563.38
2023-03-21T11:17:41.964Z,99559.09
2023-03-21T11:20:12.683Z,99548.50
2023-03-21T11:22:43.529Z,99554.13
2023-03-21T11:25:22.834Z,99556.75
2023-03-21T11:27:53.101Z,99554.91
2023-03-21T11:30:25.764Z,99553.28
2023-03-21T11:32:57.936Z,99550.28
2023-03-21T11:35:32.729Z,99542.75
2023-03-21T11:38:00.129Z,99539.44
2023-03-21T11:40:32.522Z,99543.47
2023-03-21T11:43:16.595Z,99529.22
2023-03-21T11:46:00.650Z,99528.06
2023-03-21T11:48:28.820Z,99526.91
2023-03-21T11:51:16.220Z,99521.25
2023-03-21T11:53:52.363Z,99514.03
2023-03-21T11:56:34.478Z,99501.63
2023-03-21T11:59:04.456Z,99494.75
2023-03-21T12:01:35.144Z,99489.06
2023-03-21T12:04:15.191Z,99484.91
2023-03-21T12:06:47.788Z,99483.38
2023-03-21T12:09:23.604Z,99482.22
2023-03-21T12:12:38.422Z,99486.50
2023-03-21T12:15:11.197Z,99478.34
2023-03-21T12:18:07.629Z,99476.81
2023-03-21T12:20:53.744Z,99469.22
2023-03-21T12:23:29.795Z,99459.69
2023-03-21T12:26:27.934Z,99457.03
2023-03-21T12:29:16.506Z,99453.03
2023-03-21T12:31:49.300Z,99444.16
2023-03-21T12:34:33.487Z,99435.78
2023-03-21T12:37:03.426Z,99439.28
2023-03-21T12:39:36.464Z,99438.59
2023-03-21T12:42:40.983Z,99434.09
2023-03-21T12:45:46.548Z,99427.44
2023-03-21T12:48:36.597Z,99425.19
2023-03-21T12:51:08.499Z,99418.94
2023-03-21T12:53:47.456Z,99416.06
2023-03-21T12:56:21.204Z,99416.22
2023-03-21T12:59:32.689Z,99407.38
2023-03-21T13:02:18.267Z,99396.34
2023-03-21T13:05:00.824Z,99382.03
2023-03-21T13:07:32.317Z,99376.25
2023-03-21T13:10:02.260Z,99372.38
2023-03-21T13:12:43.368Z,99365.09
2023-03-21T13:16:01.889Z,99369.53
2023-03-21T13:18:37.605Z,99383.50
2023-03-21T13:21:19.156Z,99386.69
2023-03-21T13:24:05.579Z,99372.81
2023-03-21T13:26:41.650Z,99365.63
2023-03-21T13:29:28.443Z,99354.28
2023-03-21T13:32:08.157Z,99348.09
2023-03-21T13:34:38.249Z,99327.19
2023-03-21T13:37:05.623Z,99318.84
2023-03-21T13:39:32.873Z,99319.19
2023-03-21T13:42:05.711Z,99331.50
2023-03-21T13:44:50.286Z,99337.47
2023-03-21T13:47:38.764Z,99356.50
2023-03-21T13:50:36.764Z,99349.38
2023-03-21T13:53:15.721Z,99341.88
2023-03-21T13:55:48.422Z,99334.22
2023-03-21T13:58:34.279Z,99331.69
2023-03-21T14:01:23.754Z,99328.19
2023-03-21T14:03:59.190Z,99323.50
2023-03-21T14:06:34.107Z,99321.63
2023-03-21T14:09:01.939Z,99328.69
2023-03-21T14:11:29.693Z,99329.34
2023-03-21T14:13:59.330Z,99332.53
2023-03-21T14:16:28.790Z,99345.25
2023-03-21T14:19:00.874Z,99351.59
2023-03-21T14:21:29.749Z,99352.44
2023-03-21T14:24:07.732Z,99365.63
2023-03-21T14:26:38.391Z,99368.97
2023-03-21T14:29:19.141Z,99366.63
2023-03-21T14:31:52.863Z,99377.97
2023-03-21T14:34:20.945Z,99384.16
2023-03-21T14:36:56.897Z,99385.34
2023-03-21T14:39:29.859Z,99385.50
2023-03-21T14:42:11.621Z,99383.69
2023-03-21T14:44:55.042Z,99379.16
2023-03-21T14:47:28.241Z,99388.03
2023-03-21T14:49:56.528Z,99387.00
2023-03-21T14:52:31.626Z,99388.34
2023-03-21T14:55:01.091Z,99389.53
2023-03-21T14:57:31.591Z,99386.69
2023-03-21T15:00:02.285Z,99387.00
2023-03-21T15:02:36.855Z,99378.66
2023-03-21T15:05:15.554Z,99387.69
2023-03-21T15:07:42.443Z,99387.34
2023-03-21T15:10:18.109Z,99384.50
2023-03-21T15:12:54.677Z,99387.00
2023-03-21T15:15:25.382Z,99389.84
2023-03-21T15:18:04.262Z,99404.88
2023-03-21T15:20:35.424Z,99405.41
2023-03-21T15:23:07.844Z,99416.41
2023-03-21T15:25:36.460Z,99419.22
2023-03-21T15:28:05.455Z,99419.56
2023-03-21T15:30:34.359Z,99420.00
2023-03-21T15:33:10.750Z,99420.81
2023-03-21T15:35:39.941Z,99426.25
2023-03-21T15:38:07.409Z,99431.44
2023-03-21T15:40:35.347Z,99424.34
2023-03-21T15:43:17.460Z,99430.09
2023-03-21T15:45:49.305Z,99423.13
2023-03-21T15:48:16.435Z,99432.50
2023-03-21T15:50:51.150Z,99433.09
2023-03-21T15:53:19.880Z,99426.22
2023-03-21T15:55:57.227Z,99415.50
2023-03-21T15:58:27.494Z,99411.75
2023-03-21T16:00:56.881Z,99405.03
2023-03-21T16:03:33.990Z,99396.03
2023-03-21T16:06:14.544Z,99403.34
2023-03-21T16:08:46.509Z,99407.38
2023-03-21T16:11:18.352Z,99416.63
2023-03-21T16:13:45.338Z,99415.16
2023-03-21T16:16:17.789Z,99423.63
2023-03-21T16:18:44.922Z,99411.97
2023-03-21T16:21:18.276Z,99418.91
2023-03-21T16:23:46.400Z,99421.78
2023-03-21T16:26:26.231Z,99419.00
2023-03-21T16:28:54.054Z,99425.75
2023-03-21T16:31:23.449Z,99414.97
2023-03-21T16:33:51.364Z,99421.38
2023-03-21T16:36:21.892Z,99423.44
2023-03-21T16:38:49.791Z,99425.59
2023-03-21T16:41:17.009Z,99421.88
2023-03-21T16:43:44.307Z,99413.75
2023-03-21T16:46:19.752Z,99410.53
2023-03-21T16:48:49.694Z,99417.78
2023-03-21T16:51:31.732Z,99419.31
2023-03-21T16:53:58.703Z,99426.03
2023-03-21T16:56:30.284Z,99437.63
2023-03-21T16:58:57.955Z,99441.72
2023-03-21T17:01:30.123Z,99448.22
2023-03-21T17:04:00.493Z,99442.50
2023-03-21T17:06:29.452Z,99439.66
2023-03-21T17:08:58.156Z,99437.53
2023-03-21T17:11:31.530Z,99436.91
2023-03-21T17:13:58.439Z,99446.97
2023-03-21T17:16:27.046Z,99445.44
2023-03-21T17:18:55.314Z,99436.44
2023-03-21T17:21:25.136Z,99441.50
2023-03-21T17:23:52.973Z,99442.34
2023-03-21T17:26:22.965Z,99456.78
2023-03-21T17:28:50.012Z,99447.94
2023-03-21T17:31:20.027Z,99455.94
2023-03-21T17:33:47.480Z,99458.72
2023-03-21T17:36:21.235Z,99452.97
2023-03-21T17:38:48.067Z,99444.88
2023-03-21T17:41:18.033Z,99447.81
2023-03-21T17:43:45.275Z,99440.81
2023-03-21T17:46:14.951Z,99440.38
2023-03-21T17:48:42.583Z,99431.31
2023-03-21T17:51:16.005Z,99433.13
2023-03-21T17:53:44.512Z,99436.91
2023-03-21T17:56:32.864Z,99430.91
2023-03-21T17:59:02.193Z,99430.03
2023-03-21T18:01:31.956Z,99438.72
2023-03-21T18:04:02.222Z,99443.50
2023-03-21T18:06:29.136Z,99450.31
2023-03-21T18:08:55.983Z,99454.34
2023-03-21T18:11:24.111Z,99466.59
2023-03-21T18:13:51.700Z,99455.94
2023-03-21T18:16:23.152Z,99456.19
2023-03-21T18:18:53.780Z,99448.56
2023-03-21T18:21:22.746Z,99453.09
2023-03-21T18:23:50.659Z,99458.81
2023-03-21T18:26:22.895Z,99463.16
2023-03-21T18:29:34.229Z,99465.00
2023-03-21T18:31:37.805Z,99469.75
2023-03-21T18:34:04.715Z,99465.50
2023-03-21T18:36:31.713Z,99476.06
2023-03-21T18:38:58.931Z,99471.28
2023-03-21T18:41:26.160Z,99473.09
2023-03-21T18:44:01.192Z,99480.34
2023-03-21T18:46:36.964Z,99482.09
2023-03-21T18:49:33.502Z,99483.03
2023-03-21T18:51:52.695Z,99474.19
2023-03-21T18:54:19.689Z,99466.97
2023-03-21T18:57:33.782Z,99470.66
2023-03-21T18:59:39.328Z,99475.31
2023-03-21T19:02:06.788Z,99484.50
2023-03-21T19:04:34.299Z,99483.91
2023-03-21T19:07:01.448Z,99492.69
2023-03-21T19:09:31.922Z,99487.31
2023-03-21T19:12:00.765Z,99483.59
2023-03-21T19:14:27.968Z,99493.47
2023-03-21T19:17:47.175Z,99495.72
2023-03-21T19:19:43.866Z,99495.97
2023-03-21T19:22:11.455Z,99498.06
2023-03-21T19:24:39.762Z,99492.84
2023-03-21T19:27:07.084Z,99494.16
2023-03-21T19:29:34.225Z,99487.69
2023-03-21T19:32:01.623Z,99492.41
2023-03-21T19:34:29.420Z,99493.41
2023-03-21T19:36:57.604Z,99486.78
2023-03-21T19:39:25.258Z,99483.00
2023-03-21T19:41:55.386Z,99468.53
2023-03-21T19:44:30.949Z,99478.22
2023-03-21T19:46:58.013Z,99486.09
2023-03-21T19:49:36.978Z,99484.53
2023-03-21T19:52:13.552Z,99488.72
2023-03-21T19:54:40.368Z,99491.81
2023-03-21T19:57:09.682Z,99494.22
2023-03-21T19:59:36.661Z,99480.34
2023-03-21T20:02:25.627Z,99470.66
2023-03-21T20:04:51.658Z,99472.19
2023-03-21T20:07:18.492Z,99468.53
2023-03-21T20:09:52.469Z,99466.19
2023-03-21T20:12:23.609Z,99461.41
2023-03-21T20:14:55.982Z,99448.25
2023-03-21T20:17:31.963Z,99459.03
2023-03-21T20:20:00.006Z,99450.66
2023-03-21T20:22:56.123Z,99452.94
2023-03-21T20:25:15.615Z,99460.03
2023-03-21T20:27:44.975Z,99446.28
2023-03-21T20:30:15.015Z,99457.09
2023-03-21T20:32:44.093Z,99456.22
2023-03-21T20:35:21.273Z,99459.25
2023-03-21T20:37:59.877Z,99453.78
2023-03-21T20:40:26.807Z,99453.41
2023-03-21T20:42:56.239Z,99461.41
2023-03-21T20:45:25.558Z,99467.53
2023-03-21T20:47:52.490Z,99474.78
2023-03-21T20:50:22.087Z,99473.03
2023-03-21T20:53:05.623Z,99461.97
2023-03-21T20:55:34.380Z,99475.81
2023-03-21T20:58:02.168Z,99483.84
2023-03-21T21:00:29.940Z,99479.06
2023-03-21T21:02:58.157Z,99485.31
2023-03-21T21:05:33.921Z,99483.13
2023-03-21T21:08:01.801Z,99485.88
2023-03-21T21:10:28.909Z,99481.91
2023-03-21T21:12:55.890Z,99477.56
2023-03-21T21:15:22.870Z,99480.22
2023-03-21T21:18:05.575Z,99483.06
2023-03-21T21:20:33.819Z,99481.97
2023-03-21T21:23:01.084Z,99474.41
2023-03-21T21:25:30.675Z,99481.13
2023-03-21T21:27:57.858Z,99491.50
2023-03-21T21:30:25.223Z,99495.13
2023-03-21T21:32:52.065Z,99493.31
2023-03-21T21:35:20.687Z,99483.22
2023-03-21T21:37:48.065Z,99477.19
2023-03-21T21:40:20.270Z,99478.13
2023-03-21T21:42:47.222Z,99472.59
2023-03-21T21:45:14.393Z,99469.34
2023-03-21T21:47:41.351Z,99463.59
2023-03-21T21:50:09.067Z,99476.22
2023-03-21T21:52:37.549Z,99479.47
2023-03-21T21:55:06.569Z,99483.91
2023-03-21T21:57:34.805Z,99490.88
2023-03-21T22:00:06.155Z,99493.78
2023-03-21T22:02:39.118Z,99494.66
2023-03-21T22:05:06.922Z,99486.25
2023-03-21T22:07:33.743Z,99477.72
2023-03-21T22:10:01.015Z,99476.13
2023-03-21T22:12:29.029Z,99477.25
2023-03-21T22:14:56.244Z,99473.13
2023-03-21T22:17:23.164Z,99474.31
2023-03-21T22:20:04.179Z,99471.78
2023-03-21T22:22:32.090Z,99476.22
2023-03-21T22:24:58.906Z,99475.66
2023-03-21T22:27:25.832Z,99473.91
2023-03-21T22:29:52.648Z,99481.34
2023-03-21T22:32:20.084Z,99472.81
2023-03-21T22:34:46.991Z,99465.34
2023-03-21T22:37:14.055Z,99478.19
2023-03-21T22:39:40.973Z,99464.38
2023-03-21T22:42:07.830Z,99457.00
2023-03-21T22:44:35.068Z,99452.47
2023-03-21T22:47:03.846Z,99439.72
2023-03-21T22:49:31.891Z,99437.44
2023-03-21T22:52:00.328Z,99432.19
2023-03-21T22:54:27.670Z,99422.31
2023-03-21T22:56:54.562Z,99414.16
2023-03-21T22:59:21.483Z,99422.13
2023-03-21T23:01:49.200Z,99414.06
2023-03-21T23:04:16.422Z,99423.06
2023-03-21T23:06:43.543Z,99426.91
2023-03-21T23:09:10.803Z,99436.28
2023-03-21T23:11:38.777Z,99435.78
2023-03-21T23:14:08.438Z,99439.03
2023-03-21T23:16:38.548Z,99434.84
2023-03-21T23:19:06.272Z,99435.91
2023-03-21T23:21:35.191Z,99435.56
2023-03-21T23:24:02.367Z,99439.38
2023-03-21T23:26:29.297Z,99436.88
2023-03-21T23:28:56.478Z,99435.78
2023-03-21T23:31:25.654Z,99439.97
2023-03-21T23:33:53.601Z,99440.09
2023-03-21T23:36:22.452Z,99445.63
2023-03-21T23:38:50.428Z,99444.28
2023-03-21T23:41:22.785Z,99441.16
2023-03-21T23:43:50.004Z,99440.72
2023-03-21T23:46:17.854Z,99444.31
2023-03-21T23:48:45.824Z,99449.00
2023-03-21T23:51:25.207Z,99467.97
2023-03-21T23:54:01.890Z,99464.13
2023-03-21T23:56:28.768Z,99458.25
2023-03-21T23:58:58.194Z,99453.22
